sensor_id;sensor_type;location;lat;lon;timestamp;pressure;altitude;pressure_sealevel;temperature;humidity
9899;BME280;4988;49.238;6.698;2023-02-01T00:01:07;99903.88;;;4.59;100.00
9899;BME280;4988;49.238;6.698;2023-02-01T00:03:33;99911.81;;;4.54;100.00
9899;BME280;4988;49.238;6.698;2023-02-01T00:05:59;99901.25;;;4.59;100.00
9899;BME280;4988;49.238;6.698;2023-02-01T00:08:25;99887.22;;;4.55;100.00
9899;BME280;4988;49.238;6.698;2023-02-01T00:11:01;99902.09;;;4.61;100.00
9899;BME280;4988;49.238;6.698;2023-02-01T00:13:31;99897.75;;;4.58;100.00
9899;BME280;4988;49.238;6.698;2023-02-01T00:16:05;99899.50;;;4.56;100.00
9899;BME280;4988;49.238;6.698;2023-02-01T00:18:30;99897.75;;;4.55;100.00
9899;BME280;4988;49.238;6.698;2023-02-01T00:20:56;99886.31;;;4.58;100.00
9899;BME280;4988;49.238;6.698;2023-02-01T00:23:21;99888.97;;;4.56;100.00
9899;BME280;4988;49.238;6.698;2023-02-01T00:25:46;99877.47;;;4.62;100.00
9899;BME280;4988;49.238;6.698;2023-02-01T00:28:12;99872.16;;;4.65;100.00
9899;BME280;4988;49.238;6.698;2023-02-01T00:30:38;99860.78;;;4.61;100.00
9899;BME280;4988;49.238;6.698;2023-02-01T00:33:03;99855.59;;;4.54;100.00
9899;BME280;4988;49.238;6.698;2023-02-01T00:35:29;99861.75;;;4.53;100.00
9899;BME280;4988;49.238;6.698;2023-02-01T00:37:54;99845.06;;;4.50;100.00
9899;BME280;4988;49.238;6.698;2023-02-01T00:40:19;99853.78;;;4.59;100.00
9899;BME280;4988;49.238;6.698;2023-02-01T00:42:44;99853.78;;;4.59;100.00
9899;BME280;4988;49.238;6.698;2023-02-01T00:45:10;99856.44;;;4.56;100.00
9899;BME280;4988;49.238;6.698;2023-02-01T00:47:35;99854.66;;;4.58;100.00
9899;BME280;4988;49.238;6.698;2023-02-01T00:50:00;99850.28;;;4.55;100.00
9899;BME280;4988;49.238;6.698;2023-02-01T00:52:26;99852.97;;;4.54;100.00
9899;BME280;4988;49.238;6.698;2023-02-01T00:54:51;99867.00;;;4.54;100.00
9899;BME280;4988;49.238;6.698;2023-02-01T00:57:16;99869.59;;;4.56;100.00
9899;BME280;4988;49.238;6.698;2023-02-01T00:59:42;99871.38;;;4.57;100.00
9899;BME280;4988;49.238;6.698;2023-02-01T01:02:07;99873.13;;;4.56;100.00
9899;BME280;4988;49.238;6.698;2023-02-01T01:04:32;99867.88;;;4.55;100.00
9899;BME280;4988;49.238;6.698;2023-02-01T01:06:57;99859.97;;;4.55;100.00
9899;BME280;4988;49.238;6.698;2023-02-01T01:09:23;99866.97;;;4.56;100.00
9899;BME280;4988;49.238;6.698;2023-02-01T01:11:48;99859.91;;;4.61;100.00
9899;BME280;4988;49.238;6.698;2023-02-01T01:14:16;99846.72;;;4.59;100.00
9899;BME280;4988;49.238;6.698;2023-02-01T01:16:41;99838.81;;;4.59;100.00
9899;BME280;4988;49.238;6.698;2023-02-01T01:19:06;99831.72;;;4.67;100.00
9899;BME280;4988;49.238;6.698;2023-02-01T01:21:32;99847.63;;;4.60;100.00
9899;BME280;4988;49.238;6.698;2023-02-01T01:23:58;99856.41;;;4.59;100.00
9899;BME280;4988;49.238;6.698;2023-02-01T01:26:25;99854.66;;;4.58;100.00
9899;BME280;4988;49.238;6.698;2023-02-01T01:28:51;99857.28;;;4.58;100.00
9899;BME280;4988;49.238;6.698;2023-02-01T01:31:18;99853.75;;;4.60;100.00
9899;BME280;4988;49.238;6.698;2023-02-01T01:33:44;99853.81;;;4.57;100.00
9899;BME280;4988;49.238;6.698;2023-02-01T01:36:10;99859.03;;;4.60;100.00
9899;BME280;4988;49.238;6.698;2023-02-01T01:38:37;99858.16;;;4.60;100.00
9899;BME280;4988;49.238;6.698;2023-02-01T01:41:03;99853.72;;;4.62;100.00
9899;BME280;4988;49.238;6.698;2023-02-01T01:44:05;99849.38;;;4.61;100.00
9899;BME280;4988;49.238;6.698;2023-02-01T01:46:34;99864.28;;;4.63;100.00
9899;BME280;4988;49.238;6.698;2023-02-01T01:49:12;99868.66;;;4.63;100.00
9899;BME280;4988;49.238;6.698;2023-02-01T01:51:52;99865.13;;;4.67;100.00
9899;BME280;4988;49.238;6.698;2023-02-01T01:54:28;99863.38;;;4.66;100.00
9899;BME280;4988;49.238;6.698;2023-02-01T01:56:57;99867.78;;;4.67;100.00
9899;BME280;4988;49.238;6.698;2023-02-01T01:59:24;99866.00;;;4.67;100.00
9899;BME280;4988;49.238;6.698;2023-02-01T02:01:50;99859.81;;;4.70;100.00
9899;BME280;4988;49.238;6.698;2023-02-01T02:04:15;99859.78;;;4.72;100.00
9899;BME280;4988;49.238;6.698;2023-02-01T02:06:52;99854.50;;;4.73;100.00
9899;BME280;4988;49.238;6.698;2023-02-01T02:09:20;99848.34;;;4.74;100.00
9899;BME280;4988;49.238;6.698;2023-02-01T02:11:46;99860.59;;;4.78;100.00
9899;BME280;4988;49.238;6.698;2023-02-01T02:14:14;99859.78;;;4.73;100.00
9899;BME280;4988;49.238;6.698;2023-02-01T02:24:43;99850.06;;;4.75;100.00
9899;BME280;4988;49.238;6.698;2023-02-01T02:30:44;99821.06;;;4.77;100.00
9899;BME280;4988;49.238;6.698;2023-02-01T02:38:36;99815.84;;;4.72;100.00
9899;BME280;4988;49.238;6.698;2023-02-01T02:41:21;99814.97;;;4.73;100.00
9899;BME280;4988;49.238;6.698;2023-02-01T02:47:11;99817.59;;;4.73;100.00
9899;BME280;4988;49.238;6.698;2023-02-01T02:49:57;99825.47;;;4.75;100.00
9899;BME280;4988;49.238;6.698;2023-02-01T02:52:48;99820.19;;;4.75;100.00
9899;BME280;4988;49.238;6.698;2023-02-01T02:55:35;99807.88;;;4.75;100.00
9899;BME280;4988;49.238;6.698;2023-02-01T02:58:04;99794.75;;;4.72;100.00
9899;BME280;4988;49.238;6.698;2023-02-01T03:00:49;99794.75;;;4.69;100.00
9899;BME280;4988;49.238;6.698;2023-02-01T03:03:37;99790.38;;;4.70;100.00
9899;BME280;4988;49.238;6.698;2023-02-01T03:06:22;99785.97;;;4.70;100.00
9899;BME280;4988;49.238;6.698;2023-02-01T03:08:48;99779.84;;;4.70;100.00
9899;BME280;4988;49.238;6.698;2023-02-01T03:11:14;99777.19;;;4.68;100.00
9899;BME280;4988;49.238;6.698;2023-02-01T03:13:52;99783.38;;;4.67;100.00
9899;BME280;4988;49.238;6.698;2023-02-01T03:16:51;99779.84;;;4.70;100.00
9899;BME280;4988;49.238;6.698;2023-02-01T03:19:35;99778.03;;;4.73;100.00
9899;BME280;4988;49.238;6.698;2023-02-01T03:22:05;99791.16;;;4.76;100.00
9899;BME280;4988;49.238;6.698;2023-02-01T03:24:35;99799.06;;;4.79;100.00
9899;BME280;4988;49.238;6.698;2023-02-01T03:27:19;99799.03;;;4.81;100.00
9899;BME280;4988;49.238;6.698;2023-02-01T03:29:52;99781.47;;;4.80;100.00
9899;BME280;4988;49.238;6.698;2023-02-01T03:32:21;99790.25;;;4.79;100.00
9899;BME280;4988;49.238;6.698;2023-02-01T03:34:47;99794.59;;;4.85;100.00
9899;BME280;4988;49.238;6.698;2023-02-01T03:37:21;99805.16;;;4.81;100.00
9899;BME280;4988;49.238;6.698;2023-02-01T03:40:01;99801.63;;;4.86;100.00
9899;BME280;4988;49.238;6.698;2023-02-01T03:45:07;99802.47;;;4.89;100.00
9899;BME280;4988;49.238;6.698;2023-02-01T03:47:42;99807.72;;;4.88;100.00
9899;BME280;4988;49.238;6.698;2023-02-01T03:50:14;99812.97;;;4.92;100.00
9899;BME280;4988;49.238;6.698;2023-02-01T03:53:05;99800.66;;;4.91;100.00
9899;BME280;4988;49.238;6.698;2023-02-01T03:55:32;99803.28;;;4.91;100.00
9899;BME280;4988;49.238;6.698;2023-02-01T03:58:10;99801.50;;;4.95;100.00
9899;BME280;4988;49.238;6.698;2023-02-01T04:00:37;99790.94;;;4.95;100.00
9899;BME280;4988;49.238;6.698;2023-02-01T04:03:04;99802.34;;;4.97;100.00
9899;BME280;4988;49.238;6.698;2023-02-01T04:05:30;99793.56;;;4.98;100.00
9899;BME280;4988;49.238;6.698;2023-02-01T04:07:55;99797.94;;;4.99;100.00
9899;BME280;4988;49.238;6.698;2023-02-01T04:10:21;99802.28;;;5.03;100.00
9899;BME280;4988;49.238;6.698;2023-02-01T04:12:46;99793.47;;;5.04;100.00
9899;BME280;4988;49.238;6.698;2023-02-01T04:15:12;99783.81;;;5.03;100.00
9899;BME280;4988;49.238;6.698;2023-02-01T04:17:37;99781.13;;;5.05;100.00
9899;BME280;4988;49.238;6.698;2023-02-01T04:20:03;99787.31;;;5.05;100.00
9899;BME280;4988;49.238;6.698;2023-02-01T04:22:29;99785.50;;;5.07;100.00
9899;BME280;4988;49.238;6.698;2023-02-01T04:24:55;99804.88;;;5.06;100.00
9899;BME280;4988;49.238;6.698;2023-02-01T04:27:20;99794.38;;;5.03;100.00
9899;BME280;4988;49.238;6.698;2023-02-01T04:29:45;99803.16;;;5.05;100.00
9899;BME280;4988;49.238;6.698;2023-02-01T04:32:11;99796.13;;;5.04;100.00
9899;BME280;4988;49.238;6.698;2023-02-01T04:34:36;99806.63;;;5.07;100.00
9899;BME280;4988;49.238;6.698;2023-02-01T04:37:01;99803.13;;;5.07;100.00
9899;BME280;4988;49.238;6.698;2023-02-01T04:39:27;99803.13;;;5.07;100.00
9899;BME280;4988;49.238;6.698;2023-02-01T04:41:52;99800.44;;;5.08;100.00
9899;BME280;4988;49.238;6.698;2023-02-01T04:44:18;99808.38;;;5.08;100.00
9899;BME280;4988;49.238;6.698;2023-02-01T04:46:45;99814.53;;;5.09;100.00
9899;BME280;4988;49.238;6.698;2023-02-01T04:49:12;99805.75;;;5.07;100.00
9899;BME280;4988;49.238;6.698;2023-02-01T04:51:38;99803.09;;;5.08;100.00
9899;BME280;4988;49.238;6.698;2023-02-01T04:54:04;99801.28;;;5.12;100.00
9899;BME280;4988;49.238;6.698;2023-02-01T04:56:30;99805.69;;;5.11;100.00
9899;BME280;4988;49.238;6.698;2023-02-01T04:58:55;99803.09;;;5.08;100.00
9899;BME280;4988;49.238;6.698;2023-02-01T05:01:22;99803.13;;;5.07;100.00
9899;BME280;4988;49.238;6.698;2023-02-01T05:03:48;99824.19;;;5.08;100.00
9899;BME280;4988;49.238;6.698;2023-02-01T05:06:13;99818.03;;;5.09;100.00
9899;BME280;4988;49.238;6.698;2023-02-01T05:08:39;99811.88;;;5.10;100.00
9899;BME280;4988;49.238;6.698;2023-02-01T05:11:04;99815.38;;;5.12;100.00
9899;BME280;4988;49.238;6.698;2023-02-01T05:13:30;99807.44;;;5.12;100.00
9899;BME280;4988;49.238;6.698;2023-02-01T05:16:29;99800.47;;;5.07;100.00
9899;BME280;4988;49.238;6.698;2023-02-01T05:18:54;99801.41;;;5.03;100.00
9899;BME280;4988;49.238;6.698;2023-02-01T05:21:20;99797.88;;;5.02;100.00
9899;BME280;4988;49.238;6.698;2023-02-01T05:23:45;99801.47;;;4.98;100.00
9899;BME280;4988;49.238;6.698;2023-02-01T05:26:29;99802.34;;;4.97;100.00
9899;BME280;4988;49.238;6.698;2023-02-01T05:28:55;99797.09;;;4.95;100.00
9899;BME280;4988;49.238;6.698;2023-02-01T05:31:20;99792.75;;;4.93;100.00
9899;BME280;4988;49.238;6.698;2023-02-01T05:33:46;99789.19;;;4.94;100.00
9899;BME280;4988;49.238;6.698;2023-02-01T05:36:11;99783.09;;;4.92;100.00
9899;BME280;4988;49.238;6.698;2023-02-01T05:38:36;99784.81;;;4.91;100.00
9899;BME280;4988;49.238;6.698;2023-02-01T05:41:02;99794.53;;;4.91;100.00
9899;BME280;4988;49.238;6.698;2023-02-01T05:43:27;99798.03;;;4.93;100.00
9899;BME280;4988;49.238;6.698;2023-02-01T05:45:52;99801.50;;;4.96;100.00
9899;BME280;4988;49.238;6.698;2023-02-01T05:48:18;99806.75;;;4.98;100.00
9899;BME280;4988;49.238;6.698;2023-02-01T05:50:44;99813.78;;;4.99;100.00
9899;BME280;4988;49.238;6.698;2023-02-01T05:53:10;99814.59;;;5.01;100.00
9899;BME280;4988;49.238;6.698;2023-02-01T05:55:36;99819.06;;;4.96;100.00
9899;BME280;4988;49.238;6.698;2023-02-01T05:58:03;99817.31;;;4.95;100.00
9899;BME280;4988;49.238;6.698;2023-02-01T06:00:28;99823.44;;;4.98;100.00
9899;BME280;4988;49.238;6.698;2023-02-01T06:02:54;99823.50;;;4.92;100.00
9899;BME280;4988;49.238;6.698;2023-02-01T06:05:19;99827.94;;;4.92;100.00
9899;BME280;4988;49.238;6.698;2023-02-01T06:07:45;99829.69;;;4.90;100.00
9899;BME280;4988;49.238;6.698;2023-02-01T06:10:10;99840.25;;;4.90;100.00
9899;BME280;4988;49.238;6.698;2023-02-01T06:12:35;99843.78;;;4.89;100.00
9899;BME280;4988;49.238;6.698;2023-02-01T06:15:01;99843.75;;;4.90;100.00
9899;BME280;4988;49.238;6.698;2023-02-01T06:17:26;99849.94;;;4.88;100.00
9899;BME280;4988;49.238;6.698;2023-02-01T06:19:52;99836.81;;;4.85;100.00
9899;BME280;4988;49.238;6.698;2023-02-01T06:22:17;99832.44;;;4.82;100.00
9899;BME280;4988;49.238;6.698;2023-02-01T06:24:43;99840.34;;;4.82;100.00
9899;BME280;4988;49.238;6.698;2023-02-01T06:27:08;99845.63;;;4.82;100.00
9899;BME280;4988;49.238;6.698;2023-02-01T06:29:34;99850.00;;;4.85;100.00
9899;BME280;4988;49.238;6.698;2023-02-01T06:32:00;99851.75;;;4.86;100.00
9899;BME280;4988;49.238;6.698;2023-02-01T06:34:25;99848.25;;;4.82;100.00
9899;BME280;4988;49.238;6.698;2023-02-01T06:36:50;99843.78;;;4.89;100.00
9899;BME280;4988;49.238;6.698;2023-02-01T06:39:16;99846.47;;;4.82;100.00
9899;BME280;4988;49.238;6.698;2023-02-01T06:41:45;99849.13;;;4.82;100.00
9899;BME280;4988;49.238;6.698;2023-02-01T06:44:10;99843.00;;;4.79;100.00
9899;BME280;4988;49.238;6.698;2023-02-01T06:46:36;99857.09;;;4.76;100.00
9899;BME280;4988;49.238;6.698;2023-02-01T06:49:01;99858.84;;;4.79;100.00
9899;BME280;4988;49.238;6.698;2023-02-01T06:51:27;99860.59;;;4.80;100.00
9899;BME280;4988;49.238;6.698;2023-02-01T06:53:54;99850.94;;;4.80;100.00
9899;BME280;4988;49.238;6.698;2023-02-01T06:56:20;99856.19;;;4.80;100.00
9899;BME280;4988;49.238;6.698;2023-02-01T06:58:46;99858.84;;;4.80;100.00
9899;BME280;4988;49.238;6.698;2023-02-01T07:01:12;99857.94;;;4.83;100.00
9899;BME280;4988;49.238;6.698;2023-02-01T07:03:38;99874.63;;;4.82;100.00
9899;BME280;4988;49.238;6.698;2023-02-01T07:06:05;99879.03;;;4.81;100.00
9899;BME280;4988;49.238;6.698;2023-02-01T07:08:32;99872.03;;;4.77;100.00
9899;BME280;4988;49.238;6.698;2023-02-01T07:11:10;99884.38;;;4.75;100.00
9899;BME280;4988;49.238;6.698;2023-02-01T07:13:36;99882.63;;;4.73;100.00
9899;BME280;4988;49.238;6.698;2023-02-01T07:16:03;99872.97;;;4.72;100.00
9899;BME280;4988;49.238;6.698;2023-02-01T07:18:30;99884.44;;;4.69;100.00
9899;BME280;4988;49.238;6.698;2023-02-01T07:20:55;99887.94;;;4.68;100.00
9899;BME280;4988;49.238;6.698;2023-02-01T07:23:21;99890.59;;;4.68;100.00
9899;BME280;4988;49.238;6.698;2023-02-01T07:25:47;99902.88;;;4.69;100.00
9899;BME280;4988;49.238;6.698;2023-02-01T07:28:12;99902.94;;;4.66;100.00
9899;BME280;4988;49.238;6.698;2023-02-01T07:30:37;99910.78;;;4.69;100.00
9899;BME280;4988;49.238;6.698;2023-02-01T07:33:03;99911.66;;;4.73;100.00
9899;BME280;4988;49.238;6.698;2023-02-01T07:35:28;99907.19;;;4.78;100.00
9899;BME280;4988;49.238;6.698;2023-02-01T07:37:54;99905.50;;;4.72;100.00
9899;BME280;4988;49.238;6.698;2023-02-01T07:40:19;99909.88;;;4.72;100.00
9899;BME280;4988;49.238;6.698;2023-02-01T07:42:50;99907.31;;;4.69;100.00
9899;BME280;4988;49.238;6.698;2023-02-01T07:45:15;99914.31;;;4.71;100.00
9899;BME280;4988;49.238;6.698;2023-02-01T07:47:41;99919.59;;;4.70;100.00
9899;BME280;4988;49.238;6.698;2023-02-01T07:50:06;99920.47;;;4.70;100.00
9899;BME280;4988;49.238;6.698;2023-02-01T07:52:32;99919.59;;;4.70;100.00
9899;BME280;4988;49.238;6.698;2023-02-01T07:54:57;99926.63;;;4.69;100.00
9899;BME280;4988;49.238;6.698;2023-02-01T07:57:22;99916.06;;;4.69;100.00
9899;BME280;4988;49.238;6.698;2023-02-01T07:59:48;99918.75;;;4.66;100.00
9899;BME280;4988;49.238;6.698;2023-02-01T08:02:31;99912.56;;;4.70;100.00
9899;BME280;4988;49.238;6.698;2023-02-01T08:04:57;99922.19;;;4.73;100.00
9899;BME280;4988;49.238;6.698;2023-02-01T08:07:22;99933.59;;;4.76;100.00
9899;BME280;4988;49.238;6.698;2023-02-01T08:09:47;99925.69;;;4.76;100.00
9899;BME280;4988;49.238;6.698;2023-02-01T08:12:13;99929.19;;;4.78;100.00
9899;BME280;4988;49.238;6.698;2023-02-01T08:14:38;99933.53;;;4.82;100.00
9899;BME280;4988;49.238;6.698;2023-02-01T08:17:06;99937.00;;;4.86;100.00
9899;BME280;4988;49.238;6.698;2023-02-01T08:19:31;99943.19;;;4.85;100.00
9899;BME280;4988;49.238;6.698;2023-02-01T08:21:56;99938.78;;;4.86;100.00
9899;BME280;4988;49.238;6.698;2023-02-01T08:24:22;99945.00;;;4.80;100.00
9899;BME280;4988;49.238;6.698;2023-02-01T08:26:47;99946.75;;;4.79;100.00
9899;BME280;4988;49.238;6.698;2023-02-01T08:29:12;99944.09;;;4.82;100.00
9899;BME280;4988;49.238;6.698;2023-02-01T08:31:39;99947.59;;;4.81;100.00
9899;BME280;4988;49.238;6.698;2023-02-01T08:34:09;99946.69;;;4.84;100.00
9899;BME280;4988;49.238;6.698;2023-02-01T08:36:34;99937.06;;;4.81;100.00
9899;BME280;4988;49.238;6.698;2023-02-01T08:39:00;99944.06;;;4.84;100.00
9899;BME280;4988;49.238;6.698;2023-02-01T08:41:28;99942.31;;;4.85;100.00
9899;BME280;4988;49.238;6.698;2023-02-01T08:43:55;99932.69;;;4.80;100.00
9899;BME280;4988;49.238;6.698;2023-02-01T08:46:21;99931.72;;;4.88;100.00
9899;BME280;4988;49.238;6.698;2023-02-01T08:48:47;99938.78;;;4.87;100.00
9899;BME280;4988;49.238;6.698;2023-02-01T08:51:14;99943.19;;;4.85;100.00
9899;BME280;4988;49.238;6.698;2023-02-01T08:53:41;99947.53;;;4.88;100.00
9899;BME280;4988;49.238;6.698;2023-02-01T08:56:11;99948.41;;;4.90;100.00
9899;BME280;4988;49.238;6.698;2023-02-01T08:58:37;99949.28;;;4.92;100.00
9899;BME280;4988;49.238;6.698;2023-02-01T09:01:06;99939.56;;;4.94;100.00
9899;BME280;4988;49.238;6.698;2023-02-01T09:03:32;99934.28;;;4.97;100.00
9899;BME280;4988;49.238;6.698;2023-02-01T09:06:09;99931.63;;;4.98;100.00
9899;BME280;4988;49.238;6.698;2023-02-01T09:08:36;99929.75;;;5.08;100.00
9899;BME280;4988;49.238;6.698;2023-02-01T09:11:04;99920.84;;;5.19;100.00
9899;BME280;4988;49.238;6.698;2023-02-01T09:13:30;99926.97;;;5.21;100.00
9899;BME280;4988;49.238;6.698;2023-02-01T09:15:56;99925.13;;;5.29;100.00
9899;BME280;4988;49.238;6.698;2023-02-01T09:18:22;99933.03;;;5.30;100.00
9899;BME280;4988;49.238;6.698;2023-02-01T09:20:47;99936.56;;;5.28;100.00
9899;BME280;4988;49.238;6.698;2023-02-01T09:23:13;99940.19;;;5.19;100.00
9899;BME280;4988;49.238;6.698;2023-02-01T09:25:38;99949.94;;;5.14;100.00
9899;BME280;4988;49.238;6.698;2023-02-01T09:28:04;99962.22;;;5.13;100.00
9899;BME280;4988;49.238;6.698;2023-02-01T09:30:32;99960.47;;;5.15;100.00
9899;BME280;4988;49.238;6.698;2023-02-01T09:32:57;99961.41;;;5.10;100.00
9899;BME280;4988;49.238;6.698;2023-02-01T09:35:23;99952.63;;;5.09;100.00
9899;BME280;4988;49.238;6.698;2023-02-01T09:37:48;99961.34;;;5.14;100.00
9899;BME280;4988;49.238;6.698;2023-02-01T09:40:15;99971.88;;;5.18;100.00
9899;BME280;4988;49.238;6.698;2023-02-01T09:45:58;99977.09;;;5.24;100.00
9899;BME280;4988;49.238;6.698;2023-02-01T09:48:24;99981.50;;;5.23;100.00
9899;BME280;4988;49.238;6.698;2023-02-01T09:50:55;99977.09;;;5.24;100.00
9899;BME280;4988;49.238;6.698;2023-02-01T09:53:27;99974.41;;;5.28;100.00
9899;BME280;4988;49.238;6.698;2023-02-01T09:55:55;99978.78;;;5.31;100.00
9899;BME280;4988;49.238;6.698;2023-02-01T09:58:41;99983.09;;;5.40;100.00
9899;BME280;4988;49.238;6.698;2023-02-01T10:01:22;99988.25;;;5.49;100.00
9899;BME280;4988;49.238;6.698;2023-02-01T10:03:49;99986.47;;;5.51;100.00
9899;BME280;4988;49.238;6.698;2023-02-01T10:08:56;99996.22;;;5.46;99.59
9899;BME280;4988;49.238;6.698;2023-02-01T10:11:42;99995.34;;;5.47;99.48
9899;BME280;4988;49.238;6.698;2023-02-01T10:17:09;100001.44;;;5.52;98.49
9899;BME280;4988;49.238;6.698;2023-02-01T10:19:47;100004.03;;;5.57;98.59
9899;BME280;4988;49.238;6.698;2023-02-01T10:22:41;100004.09;;;5.51;96.33
9899;BME280;4988;49.238;6.698;2023-02-01T10:25:14;99992.69;;;5.47;94.99
9899;BME280;4988;49.238;6.698;2023-02-01T10:27:42;99994.44;;;5.50;95.46
9899;BME280;4988;49.238;6.698;2023-02-01T10:30:25;99992.69;;;5.45;96.54
9899;BME280;4988;49.238;6.698;2023-02-01T10:33:12;99989.13;;;5.50;96.40
9899;BME280;4988;49.238;6.698;2023-02-01T10:35:39;100004.03;;;5.54;96.25
9899;BME280;4988;49.238;6.698;2023-02-01T10:38:17;99988.25;;;5.51;96.39
9899;BME280;4988;49.238;6.698;2023-02-01T10:40:43;99987.31;;;5.55;96.49
9899;BME280;4988;49.238;6.698;2023-02-01T10:43:09;99986.44;;;5.56;95.60
9899;BME280;4988;49.238;6.698;2023-02-01T10:45:34;99988.16;;;5.58;94.92
9899;BME280;4988;49.238;6.698;2023-02-01T10:48:03;99984.63;;;5.59;94.78
9899;BME280;4988;49.238;6.698;2023-02-01T10:50:33;99985.50;;;5.60;94.92
9899;BME280;4988;49.238;6.698;2023-02-01T10:53:09;99983.72;;;5.62;94.32
9899;BME280;4988;49.238;6.698;2023-02-01T10:58:14;99968.69;;;5.66;95.04
9899;BME280;4988;49.238;6.698;2023-02-01T11:00:57;99964.19;;;5.75;93.83
9899;BME280;4988;49.238;6.698;2023-02-01T11:06:17;99942.78;;;5.92;94.43
9899;BME280;4988;49.238;6.698;2023-02-01T11:08:47;99934.91;;;5.89;92.05
9899;BME280;4988;49.238;6.698;2023-02-01T11:11:13;99955.06;;;5.98;93.26
9899;BME280;4988;49.238;6.698;2023-02-01T11:13:39;99957.69;;;5.98;92.69
9899;BME280;4988;49.238;6.698;2023-02-01T11:16:06;99953.25;;;6.03;90.92
9899;BME280;4988;49.238;6.698;2023-02-01T11:18:35;99960.31;;;6.03;91.47
9899;BME280;4988;49.238;6.698;2023-02-01T11:21:02;99961.22;;;6.00;89.80
9899;BME280;4988;49.238;6.698;2023-02-01T11:23:30;99958.59;;;5.97;90.27
9899;BME280;4988;49.238;6.698;2023-02-01T11:26:10;99959.56;;;5.90;91.57
9899;BME280;4988;49.238;6.698;2023-02-01T11:28:39;99953.38;;;5.91;90.73
9899;BME280;4988;49.238;6.698;2023-02-01T11:31:09;99950.66;;;5.99;92.06
9899;BME280;4988;49.238;6.698;2023-02-01T11:33:37;99947.13;;;6.00;91.42
9899;BME280;4988;49.238;6.698;2023-02-01T11:36:16;99948.00;;;6.02;90.59
9899;BME280;4988;49.238;6.698;2023-02-01T11:41:34;99945.38;;;6.00;90.29
9899;BME280;4988;49.238;6.698;2023-02-01T11:44:02;99939.19;;;6.01;90.33
9899;BME280;4988;49.238;6.698;2023-02-01T11:46:40;99946.25;;;5.96;91.04
9899;BME280;4988;49.238;6.698;2023-02-01T11:49:22;99945.44;;;5.92;92.16
9899;BME280;4988;49.238;6.698;2023-02-01T11:52:18;99940.09;;;5.99;92.82
9899;BME280;4988;49.238;6.698;2023-02-01T11:59:59;99925.22;;;5.90;93.45
9899;BME280;4988;49.238;6.698;2023-02-01T12:08:15;99931.28;;;5.96;91.88
9899;BME280;4988;49.238;6.698;2023-02-01T12:10:55;99933.19;;;5.87;91.57
9899;BME280;4988;49.238;6.698;2023-02-01T12:13:48;99924.47;;;5.82;91.69
9899;BME280;4988;49.238;6.698;2023-02-01T12:19:03;99925.38;;;5.79;91.50
9899;BME280;4988;49.238;6.698;2023-02-01T12:21:47;99925.28;;;5.84;92.18
9899;BME280;4988;49.238;6.698;2023-02-01T12:37:48;99914.56;;;5.96;91.12
9899;BME280;4988;49.238;6.698;2023-02-01T12:43:19;99907.31;;;6.10;91.58
9899;BME280;4988;49.238;6.698;2023-02-01T12:45:56;99897.66;;;6.11;89.59
9899;BME280;4988;49.238;6.698;2023-02-01T12:51:15;99896.91;;;6.01;90.05
9899;BME280;4988;49.238;6.698;2023-02-01T12:53:51;99888.13;;;5.99;90.65
9899;BME280;4988;49.238;6.698;2023-02-01T12:56:26;99888.06;;;6.02;90.35
9899;BME280;4988;49.238;6.698;2023-02-01T12:58:58;99893.25;;;6.08;90.92
9899;BME280;4988;49.238;6.698;2023-02-01T13:06:45;99882.47;;;6.22;88.86
9899;BME280;4988;49.238;6.698;2023-02-01T13:09:28;99871.81;;;6.28;89.53
9899;BME280;4988;49.238;6.698;2023-02-01T13:11:59;99862.00;;;6.34;89.00
9899;BME280;4988;49.238;6.698;2023-02-01T13:14:39;99868.03;;;6.43;89.22
9899;BME280;4988;49.238;6.698;2023-02-01T13:17:14;99848.53;;;6.48;88.65
9899;BME280;4988;49.238;6.698;2023-02-01T13:22:49;99840.34;;;6.63;89.44
9899;BME280;4988;49.238;6.698;2023-02-01T13:25:40;99839.38;;;6.67;88.49
9899;BME280;4988;49.238;6.698;2023-02-01T13:28:24;99837.59;;;6.69;87.70
9899;BME280;4988;49.238;6.698;2023-02-01T13:42:28;99844.50;;;6.76;87.70
9899;BME280;4988;49.238;6.698;2023-02-01T13:44:58;99837.41;;;6.77;88.08
9899;BME280;4988;49.238;6.698;2023-02-01T13:47:32;99844.16;;;6.95;88.99
9899;BME280;4988;49.238;6.698;2023-02-01T13:50:03;99840.59;;;6.96;86.30
9899;BME280;4988;49.238;6.698;2023-02-01T13:52:38;99837.16;;;6.91;86.44
9899;BME280;4988;49.238;6.698;2023-02-01T13:57:46;99832.53;;;7.02;87.15
9899;BME280;4988;49.238;6.698;2023-02-01T14:00:40;99827.06;;;7.10;86.75
9899;BME280;4988;49.238;6.698;2023-02-01T14:03:11;99836.94;;;7.02;86.05
9899;BME280;4988;49.238;6.698;2023-02-01T14:10:59;99837.09;;;6.94;85.49
9899;BME280;4988;49.238;6.698;2023-02-01T14:13:39;99838.97;;;6.89;85.95
9899;BME280;4988;49.238;6.698;2023-02-01T14:21:32;99844.41;;;6.81;86.88
9899;BME280;4988;49.238;6.698;2023-02-01T14:24:00;99845.31;;;6.80;86.97
9899;BME280;4988;49.238;6.698;2023-02-01T14:26:47;99839.22;;;6.76;87.13
9899;BME280;4988;49.238;6.698;2023-02-01T14:34:29;99840.84;;;6.82;86.82
9899;BME280;4988;49.238;6.698;2023-02-01T14:37:01;99850.56;;;6.82;87.54
9899;BME280;4988;49.238;6.698;2023-02-01T14:42:01;99853.25;;;6.80;86.57
9899;BME280;4988;49.238;6.698;2023-02-01T14:44:32;99848.78;;;6.82;86.26
9899;BME280;4988;49.238;6.698;2023-02-01T14:52:20;99846.19;;;6.81;85.87
9899;BME280;4988;49.238;6.698;2023-02-01T14:54:53;99852.31;;;6.83;85.88
9899;BME280;4988;49.238;6.698;2023-02-01T14:57:20;99852.38;;;6.80;85.38
9899;BME280;4988;49.238;6.698;2023-02-01T14:59:53;99843.63;;;6.76;84.78
9899;BME280;4988;49.238;6.698;2023-02-01T15:02:26;99846.25;;;6.78;84.76
9899;BME280;4988;49.238;6.698;2023-02-01T15:04:56;99850.59;;;6.80;84.19
9899;BME280;4988;49.238;6.698;2023-02-01T15:07:24;99856.72;;;6.84;83.93
9899;BME280;4988;49.238;6.698;2023-02-01T15:09:52;99850.56;;;6.82;83.66
9899;BME280;4988;49.238;6.698;2023-02-01T15:12:23;99856.72;;;6.84;81.86
9899;BME280;4988;49.238;6.698;2023-02-01T15:15:17;99853.22;;;6.82;82.17
9899;BME280;4988;49.238;6.698;2023-02-01T15:17:51;99856.84;;;6.76;81.85
9899;BME280;4988;49.238;6.698;2023-02-01T15:20:20;99856.75;;;6.81;81.66
9899;BME280;4988;49.238;6.698;2023-02-01T15:23:03;99870.09;;;6.74;82.72
9899;BME280;4988;49.238;6.698;2023-02-01T15:25:34;99856.75;;;6.81;81.36
9899;BME280;4988;49.238;6.698;2023-02-01T15:28:02;99854.19;;;6.78;80.75
9899;BME280;4988;49.238;6.698;2023-02-01T15:30:30;99854.22;;;6.74;81.13
9899;BME280;4988;49.238;6.698;2023-02-01T15:33:16;99853.44;;;6.69;80.82
9899;BME280;4988;49.238;6.698;2023-02-01T15:40:54;99851.13;;;6.52;82.31
9899;BME280;4988;49.238;6.698;2023-02-01T15:43:20;99850.31;;;6.47;82.51